Time;durP1;ratioP1;P1;durP2;ratioP2;P2;SDS_P1;SDS_P2;PMS_P1;PMS_P2;Temp;Humidity;BMP_temperature;BMP_pressure;BME280_temperature;BME280_humidity;BME280_pressure;Samples;Min_cycle;Max_cycle;Signal;HPM_P1;HPM_P2
2024/01/24 00:01:05;;;;;;;4.80;2.33;;;;;;;12.71;56.10;97887.59;6154649;23;20009;-26
2024/01/24 00:03:31;;;;;;;4.70;1.90;;;;;;;12.95;54.72;97878.41;6154798;23;20442;-26
2024/01/24 00:05:56;;;;;;;4.60;1.90;;;;;;;12.87;55.63;97879.63;6154803;23;20502;-26
2024/01/24 00:08:22;;;;;;;4.57;1.98;;;;;;;12.87;55.48;97874.97;6154615;23;20009;-26
2024/01/24 00:10:47;;;;;;;5.00;1.73;;;;;;;12.77;56.33;97869.63;6154558;23;20080;-26
2024/01/24 00:13:12;;;;;;;6.63;2.33;;;;;;;12.78;55.84;97871.19;6154972;23;20012;-26
2024/01/24 00:15:38;;;;;;;4.78;1.83;;;;;;;12.85;55.74;97882.78;6154304;23;20001;-26
2024/01/24 00:18:04;;;;;;;4.43;1.60;;;;;;;12.69;55.99;97879.06;6154553;23;20006;-26
2024/01/24 00:20:29;;;;;;;4.53;1.98;;;;;;;12.94;55.33;97882.28;6154460;23;20041;-26
2024/01/24 00:22:55;;;;;;;5.03;1.88;;;;;;;12.89;55.69;97886.22;6154439;23;20002;-26
2024/01/24 00:25:21;;;;;;;5.40;1.60;;;;;;;12.71;56.36;97882.16;6154808;23;20072;-26
2024/01/24 00:27:47;;;;;;;2.67;1.60;;;;;;;12.59;56.61;97881.50;6154971;23;20005;-26
2024/01/24 00:30:12;;;;;;;3.05;1.63;;;;;;;12.89;55.73;97888.16;6156270;23;20009;-26
2024/01/24 00:32:38;;;;;;;4.93;1.90;;;;;;;12.84;55.86;97885.91;6156284;23;20001;-26
2024/01/24 00:35:04;;;;;;;3.72;1.85;;;;;;;12.85;55.70;97890.19;6156156;23;20001;-26
2024/01/24 00:37:29;;;;;;;3.88;1.80;;;;;;;12.77;56.33;97891.41;6156015;23;20443;-26
2024/01/24 00:39:54;;;;;;;4.43;1.98;;;;;;;12.92;55.66;97898.25;6156410;23;20088;-26
2024/01/24 00:42:20;;;;;;;4.80;2.05;;;;;;;12.84;56.15;97886.69;6155748;23;20077;-26
2024/01/24 00:44:47;;;;;;;4.43;1.80;;;;;;;12.89;55.45;97890.91;6156387;23;20009;-26
2024/01/24 00:47:13;;;;;;;5.25;2.10;;;;;;;12.85;55.67;97892.91;6156093;23;20308;-26
2024/01/24 00:49:38;;;;;;;4.30;2.22;;;;;;;12.77;55.66;97885.97;6156024;23;20088;-27
2024/01/24 00:52:04;;;;;;;3.90;1.90;;;;;;;12.86;55.58;97888.97;6156343;23;20006;-27
2024/01/24 00:54:29;;;;;;;6.65;2.97;;;;;;;12.74;55.59;97881.31;6156063;23;20016;-26
2024/01/24 00:56:55;;;;;;;6.90;2.35;;;;;;;12.89;55.57;97883.50;6156053;23;20420;-26
2024/01/24 00:59:20;;;;;;;3.38;2.00;;;;;;;12.68;56.30;97882.97;6156158;23;20482;-26
2024/01/24 01:01:45;;;;;;;3.95;1.83;;;;;;;12.72;55.90;97889.16;6156086;23;20013;-26
2024/01/24 01:04:11;;;;;;;3.42;1.70;;;;;;;12.65;56.37;97881.81;6155988;23;20013;-27
2024/01/24 01:06:36;;;;;;;6.40;2.20;;;;;;;12.92;55.60;97881.91;6155865;23;20013;-26
2024/01/24 01:09:02;;;;;;;5.63;2.38;;;;;;;12.92;54.68;97874.53;6156104;23;20033;-26
2024/01/24 01:11:28;;;;;;;6.20;2.50;;;;;;;12.87;55.05;97869.50;6155930;23;20008;-26
2024/01/24 01:13:53;;;;;;;6.75;2.47;;;;;;;13.04;54.07;97878.66;6155610;23;20005;-26
2024/01/24 01:16:18;;;;;;;5.00;2.28;;;;;;;12.94;54.94;97879.56;6155866;23;20005;-26
2024/01/24 01:18:44;;;;;;;4.68;2.00;;;;;;;12.87;55.09;97872.25;6155786;23;20005;-26
2024/01/24 01:21:09;;;;;;;5.88;2.30;;;;;;;12.78;55.59;97876.63;6155974;23;20005;-26
2024/01/24 01:23:35;;;;;;;4.57;2.00;;;;;;;12.89;54.75;97871.84;6155938;23;20052;-26
2024/01/24 01:26:01;;;;;;;5.32;2.30;;;;;;;12.74;55.54;97854.09;6155624;23;20033;-26
2024/01/24 01:28:27;;;;;;;6.18;1.98;;;;;;;12.76;54.69;97868.88;6156114;23;20419;-26
2024/01/24 01:30:52;;;;;;;4.97;2.08;;;;;;;12.88;54.46;97881.94;6155664;23;20005;-26
2024/01/24 01:33:17;;;;;;;2.70;1.92;;;;;;;12.79;54.69;97883.63;6155507;23;20013;-26
2024/01/24 01:35:43;;;;;;;4.72;2.00;;;;;;;12.76;54.74;97876.25;6155797;23;20047;-26
2024/01/24 01:38:08;;;;;;;4.53;1.83;;;;;;;12.87;54.02;97876.91;6155565;23;20016;-26
2024/01/24 01:40:34;;;;;;;4.22;2.17;;;;;;;12.77;54.36;97862.25;6155246;23;20327;-26
2024/01/24 01:42:59;;;;;;;4.72;2.20;;;;;;;12.70;54.35;97856.88;6155631;23;20025;-26
2024/01/24 01:45:25;;;;;;;6.95;3.15;;;;;;;12.67;54.43;97849.53;6155357;23;20620;-26
2024/01/24 01:47:51;;;;;;;6.85;2.58;;;;;;;12.58;54.20;97854.69;6155986;23;20002;-26
2024/01/24 01:50:18;;;;;;;5.70;2.70;;;;;;;12.70;54.13;97865.06;6155472;23;20001;-26
2024/01/24 01:52:44;;;;;;;4.97;2.70;;;;;;;12.58;54.11;97858.19;6155698;23;20006;-26
2024/01/24 01:55:12;;;;;;;4.85;2.70;;;;;;;12.63;53.99;97869.78;6155940;23;20012;-26
2024/01/24 01:57:41;;;;;;;8.68;3.15;;;;;;;12.65;53.85;97875.59;6155602;23;20077;-26
2024/01/24 02:00:09;;;;;;;5.38;2.55;;;;;;;12.76;53.77;97884.41;6155616;23;20027;-26
2024/01/24 02:02:36;;;;;;;8.50;2.67;;;;;;;12.61;53.93;97897.41;6155284;23;20076;-26
2024/01/24 02:05:02;;;;;;;5.00;2.78;;;;;;;12.53;54.26;97890.50;6129166;23;19997;-26
2024/01/24 02:07:27;;;;;;;6.18;3.60;;;;;;;12.53;53.88;97891.25;6155577;23;20029;-26
2024/01/24 02:09:54;;;;;;;6.97;3.15;;;;;;;12.59;53.37;97892.38;6155290;23;20008;-26
2024/01/24 02:12:19;;;;;;;4.90;3.28;;;;;;;12.59;53.76;97886.94;6155190;23;20432;-26
2024/01/24 02:14:45;;;;;;;6.25;3.35;;;;;;;12.50;53.94;97883.91;6155254;23;20002;-26
2024/01/24 02:17:11;;;;;;;6.78;3.88;;;;;;;12.50;54.16;97883.13;6155418;23;20043;-26
2024/01/24 02:19:37;;;;;;;9.95;3.95;;;;;;;12.44;54.22;97877.34;6155563;23;20041;-26
2024/01/24 02:22:03;;;;;;;7.65;3.30;;;;;;;12.43;54.06;97875.03;6155061;23;20096;-26
2024/01/24 02:24:28;;;;;;;6.50;3.75;;;;;;;12.39;54.36;97868.84;6155487;23;20357;-26
2024/01/24 02:26:54;;;;;;;8.95;3.70;;;;;;;12.46;54.41;97869.56;6155120;23;20081;-26
2024/01/24 02:29:19;;;;;;;8.95;3.90;;;;;;;12.42;54.36;97866.09;6155338;23;20001;-26
2024/01/24 02:31:45;;;;;;;8.70;4.13;;;;;;;12.51;54.47;97855.50;6155019;23;20009;-26
2024/01/24 02:34:10;;;;;;;8.07;3.53;;;;;;;12.54;53.83;97857.44;6154975;23;20005;-26
2024/01/24 02:36:35;;;;;;;6.70;3.83;;;;;;;12.33;54.83;97875.91;6155380;23;20088;-26
2024/01/24 02:39:01;;;;;;;5.68;3.67;;;;;;;12.54;54.00;97873.75;6155164;23;20415;-26
2024/01/24 02:41:26;;;;;;;6.50;2.78;;;;;;;12.47;54.23;97865.69;6154912;23;20028;-26
2024/01/24 02:43:52;;;;;;;5.53;2.60;;;;;;;12.61;54.19;97853.84;6155185;23;20008;-26
2024/01/24 02:46:17;;;;;;;3.58;2.65;;;;;;;12.45;54.60;97859.88;6154778;23;20012;-26
2024/01/24 02:48:43;;;;;;;4.95;2.40;;;;;;;12.49;54.99;97868.75;6155379;23;20363;-26
2024/01/24 02:51:08;;;;;;;4.65;2.10;;;;;;;12.33;55.13;97873.97;6155095;23;20009;-26
2024/01/24 02:53:33;;;;;;;4.03;2.30;;;;;;;12.35;55.11;97868.91;6155064;23;20009;-26
2024/01/24 02:55:59;;;;;;;6.50;2.70;;;;;;;12.40;54.97;97862.22;6155143;23;20423;-26
2024/01/24 02:58:24;;;;;;;8.30;2.85;;;;;;;12.32;55.46;97855.31;6155130;23;20072;-26
2024/01/24 03:00:50;;;;;;;8.98;3.63;;;;;;;12.32;55.74;97858.81;6155251;23;20084;-26
2024/01/24 03:03:15;;;;;;;8.02;3.83;;;;;;;12.10;55.98;97847.38;6155091;23;20068;-26
2024/01/24 03:05:41;;;;;;;5.90;3.33;;;;;;;12.42;55.24;97838.91;6154725;23;20001;-26
2024/01/24 03:08:06;;;;;;;8.25;3.25;;;;;;;12.21;56.02;97839.09;6154931;23;20012;-26
2024/01/24 03:10:32;;;;;;;5.63;3.28;;;;;;;12.29;55.55;97840.56;6154624;23;20388;-26
2024/01/24 03:12:57;;;;;;;8.45;3.53;;;;;;;12.16;55.62;97840.31;6154941;23;20001;-26
2024/01/24 03:15:25;;;;;;;10.82;3.70;;;;;;;11.98;56.39;97836.19;6155012;23;20376;-26
2024/01/24 03:17:50;;;;;;;7.72;3.58;;;;;;;12.33;55.70;97829.66;6154773;23;20001;-26
2024/01/24 03:20:16;;;;;;;6.75;3.65;;;;;;;12.32;56.15;97839.78;6155070;23;20002;-26
2024/01/24 03:22:42;;;;;;;10.35;4.35;;;;;;;12.14;56.80;97839.16;6154782;23;20078;-27
2024/01/24 03:25:08;;;;;;;11.10;4.30;;;;;;;12.15;56.13;97830.59;6154982;23;20040;-27
2024/01/24 03:27:33;;;;;;;7.90;3.50;;;;;;;12.18;56.75;97834.47;6154525;23;20001;-27
2024/01/24 03:29:59;;;;;;;10.90;4.45;;;;;;;12.09;56.66;97840.38;6154781;23;20009;-27
2024/01/24 03:32:25;;;;;;;10.77;3.38;;;;;;;12.01;57.39;97840.81;6154958;23;20001;-27
2024/01/24 03:34:59;;;;;;;10.68;3.67;;;;;;;12.00;57.63;97839.28;6154921;23;20025;-27
2024/01/24 03:37:24;;;;;;;9.73;4.68;;;;;;;12.08;57.28;97846.22;6154547;23;20031;-27
2024/01/24 03:39:50;;;;;;;9.75;3.42;;;;;;;12.23;56.68;97848.41;6154750;23;20005;-26
2024/01/24 03:42:15;;;;;;;9.82;3.97;;;;;;;12.24;56.75;97844.50;6154258;23;20037;-26
2024/01/24 03:44:41;;;;;;;11.45;5.40;;;;;;;12.24;57.00;97832.84;6154667;23;20328;-26
2024/01/24 03:47:06;;;;;;;8.25;4.10;;;;;;;12.26;56.79;97830.50;6154696;23;20029;-26
2024/01/24 03:49:32;;;;;;;11.93;4.43;;;;;;;12.20;56.86;97851.16;6154565;23;20487;-26
2024/01/24 03:51:58;;;;;;;11.20;3.97;;;;;;;12.35;56.31;97838.97;6154826;23;20013;-26
2024/01/24 03:54:23;;;;;;;8.95;4.10;;;;;;;12.34;56.34;97837.44;6154796;23;20089;-26
2024/01/24 03:56:49;;;;;;;7.65;4.07;;;;;;;12.32;56.76;97841.72;6154679;23;20002;-26
2024/01/24 03:59:15;;;;;;;7.95;4.20;;;;;;;12.13;57.22;97846.53;6154676;23;20001;-26
2024/01/24 04:01:40;;;;;;;8.75;4.75;;;;;;;12.38;56.29;97845.53;6154572;23;20010;-27
2024/01/24 04:04:07;;;;;;;9.13;4.22;;;;;;;12.28;56.56;97849.91;6130002;23;20083;-27
2024/01/24 04:06:33;;;;;;;10.90;4.78;;;;;;;12.07;57.19;97848.16;6156529;23;20001;-27
2024/01/24 04:08:58;;;;;;;9.38;4.20;;;;;;;12.17;56.63;97850.00;6156451;23;20510;-26
2024/01/24 04:11:23;;;;;;;10.65;4.30;;;;;;;12.19;56.37;97846.88;6156706;23;20005;-26
2024/01/24 04:13:53;;;;;;;10.70;3.85;;;;;;;11.96;56.84;97849.41;6156147;23;20068;-26
2024/01/24 04:16:19;;;;;;;8.35;3.90;;;;;;;12.23;56.16;97847.63;6156955;23;20036;-26
2024/01/24 04:18:44;;;;;;;9.27;4.03;;;;;;;12.03;57.07;97849.34;6156311;23;20001;-26
2024/01/24 04:21:10;;;;;;;8.63;3.42;;;;;;;12.02;56.86;97848.56;6156685;23;20014;-26
2024/01/24 04:23:35;;;;;;;6.50;3.20;;;;;;;12.13;56.54;97840.31;6156854;23;20400;-27
2024/01/24 04:26:07;;;;;;;7.47;3.90;;;;;;;12.30;55.82;97839.41;6155956;23;20006;-26
2024/01/24 04:28:32;;;;;;;6.82;3.17;;;;;;;12.11;56.51;97845.41;6156542;23;20024;-26
2024/01/24 04:30:57;;;;;;;9.90;3.88;;;;;;;12.21;56.07;97849.97;6156440;23;20424;-26
2024/01/24 04:33:23;;;;;;;8.90;3.78;;;;;;;12.24;56.10;97846.44;6156096;23;20503;-26
2024/01/24 04:35:48;;;;;;;9.50;4.65;;;;;;;12.09;56.81;97847.75;6156277;23;20001;-26
2024/01/24 04:38:14;;;;;;;11.27;4.32;;;;;;;12.10;56.47;97849.31;6156570;23;20417;-26
2024/01/24 04:40:39;;;;;;;9.93;4.18;;;;;;;12.08;56.24;97859.81;6156331;23;20388;-26
2024/01/24 04:43:05;;;;;;;10.07;4.35;;;;;;;12.11;56.00;97861.72;6155987;23;20627;-26
2024/01/24 04:45:30;;;;;;;11.27;4.90;;;;;;;12.05;56.52;97838.84;6156283;23;19998;-26
2024/01/24 04:47:56;;;;;;;10.95;5.05;;;;;;;12.10;55.92;97833.00;6156109;23;20005;-26
2024/01/24 04:50:21;;;;;;;10.70;4.65;;;;;;;12.10;55.83;97825.59;6156188;23;20040;-26
2024/01/24 04:52:47;;;;;;;8.80;4.72;;;;;;;11.98;56.68;97831.53;6156580;23;20001;-26
2024/01/24 04:55:13;;;;;;;8.65;3.88;;;;;;;12.08;55.71;97827.94;6156263;23;20392;-27
2024/01/24 04:57:39;;;;;;;11.57;4.95;;;;;;;11.91;56.22;97826.16;6155976;23;20009;-26
2024/01/24 05:00:09;;;;;;;7.93;4.15;;;;;;;12.06;56.16;97835.72;6156126;23;20448;-26
2024/01/24 05:02:34;;;;;;;12.00;4.35;;;;;;;11.96;56.14;97843.97;6155825;23;20001;-27
2024/01/24 05:05:01;;;;;;;12.25;5.20;;;;;;;12.08;55.76;97829.91;6156169;23;20076;-26
2024/01/24 05:07:27;;;;;;;10.93;4.95;;;;;;;12.00;56.09;97823.72;6156178;23;20009;-26
2024/01/24 05:09:52;;;;;;;9.85;5.07;;;;;;;11.99;56.06;97829.59;6155746;23;20005;-26
2024/01/24 05:12:17;;;;;;;10.15;4.18;;;;;;;11.82;56.13;97823.88;6156312;23;20012;-26
2024/01/24 05:14:43;;;;;;;11.55;5.60;;;;;;;11.81;56.21;97841.38;6155098;23;20033;-26
2024/01/24 05:17:09;;;;;;;10.70;5.50;;;;;;;11.90;56.08;97835.47;6156047;23;20001;-26
2024/01/24 05:19:35;;;;;;;10.73;4.45;;;;;;;11.95;56.29;97839.72;6155755;23;20376;-26
2024/01/24 05:22:00;;;;;;;8.77;4.80;;;;;;;11.77;56.47;97832.47;6155688;23;20009;-26
2024/01/24 05:24:26;;;;;;;9.80;4.50;;;;;;;11.95;56.12;97837.00;6155993;23;20001;-27
2024/01/24 05:26:51;;;;;;;9.18;4.25;;;;;;;11.96;55.86;97823.00;6155713;23;20001;-27
2024/01/24 05:29:17;;;;;;;11.35;5.40;;;;;;;12.04;55.59;97840.03;6156141;23;20009;-26
2024/01/24 05:31:42;;;;;;;13.07;5.75;;;;;;;11.95;55.64;97847.88;6156063;23;20450;-26
2024/01/24 05:34:08;;;;;;;14.60;7.72;;;;;;;11.96;55.97;97865.72;6155420;23;20043;-26
2024/01/24 05:36:34;;;;;;;14.15;6.63;;;;;;;12.02;55.50;97862.16;6156017;23;20002;-27
2024/01/24 05:38:59;;;;;;;15.55;6.97;;;;;;;11.91;55.57;97850.59;6155645;23;20013;-26
2024/01/24 05:41:25;;;;;;;12.13;5.18;;;;;;;11.86;56.27;97849.13;6155500;23;20021;-26
2024/01/24 05:43:50;;;;;;;13.43;4.75;;;;;;;11.77;56.29;97846.06;6155895;23;20041;-27
2024/01/24 05:46:17;;;;;;;9.55;4.50;;;;;;;12.00;55.81;97842.75;6155265;23;20367;-27
2024/01/24 05:48:42;;;;;;;6.13;3.88;;;;;;;11.97;55.74;97850.97;6155832;23;20076;-27
2024/01/24 05:51:08;;;;;;;8.40;4.00;;;;;;;11.84;56.43;97850.69;6155657;23;20420;-26
2024/01/24 05:53:33;;;;;;;9.02;3.42;;;;;;;11.83;56.50;97847.19;6155408;23;20080;-27
2024/01/24 05:55:59;;;;;;;11.68;4.40;;;;;;;12.13;55.74;97841.09;6155437;23;20009;-26
2024/01/24 05:58:24;;;;;;;9.57;3.88;;;;;;;12.08;55.27;97836.09;6155216;23;20336;-26
2024/01/24 06:00:50;;;;;;;5.20;3.33;;;;;;;11.90;56.15;97851.00;6155516;23;20009;-26
2024/01/24 06:03:15;;;;;;;6.75;3.67;;;;;;;12.16;55.40;97847.69;6155617;23;20081;-26
2024/01/24 06:05:41;;;;;;;9.20;4.10;;;;;;;12.10;55.29;97855.53;6154998;23;20001;-26
2024/01/24 06:08:06;;;;;;;8.38;3.55;;;;;;;11.77;56.49;97858.88;6155597;23;20002;-27
2024/01/24 06:10:33;;;;;;;10.23;4.97;;;;;;;11.97;55.52;97873.50;6155532;23;20013;-26
2024/01/24 06:12:58;;;;;;;10.73;5.68;;;;;;;11.89;56.10;97871.97;6155403;23;20008;-27
2024/01/24 06:15:24;;;;;;;14.45;6.40;;;;;;;12.10;55.21;97884.66;6129442;23;20009;-26
2024/01/24 06:17:49;;;;;;;13.73;5.57;;;;;;;11.97;55.45;97884.38;6155015;23;20013;-26
2024/01/24 06:20:15;;;;;;;11.55;4.72;;;;;;;12.00;55.60;97883.53;6155355;23;20001;-26
2024/01/24 06:22:41;;;;;;;8.10;4.00;;;;;;;11.87;55.68;97885.19;6155331;23;20024;-26
2024/01/24 06:25:07;;;;;;;7.35;4.25;;;;;;;12.03;55.19;97877.31;6155180;23;20332;-27
2024/01/24 06:27:36;;;;;;;6.55;4.50;;;;;;;11.95;55.27;97866.91;6155534;23;20011;-26
2024/01/24 06:30:01;;;;;;;10.63;5.53;;;;;;;11.99;54.59;97862.97;6155196;23;20001;-27
2024/01/24 06:32:27;;;;;;;10.38;4.65;;;;;;;11.78;55.09;97861.19;6155166;23;20016;-26
2024/01/24 06:34:52;;;;;;;9.52;3.75;;;;;;;11.81;54.92;97871.28;6155216;23;20005;-26
2024/01/24 06:37:18;;;;;;;8.43;3.70;;;;;;;11.91;54.35;97858.75;6155008;23;20012;-26
2024/01/24 06:39:44;;;;;;;10.23;3.60;;;;;;;12.05;54.07;97868.75;6154986;23;20101;-26
2024/01/24 06:42:10;;;;;;;6.80;3.25;;;;;;;11.95;54.22;97867.69;6154764;23;20218;-27
2024/01/24 06:44:36;;;;;;;8.75;3.50;;;;;;;11.67;55.05;97871.31;6155146;23;20088;-27
2024/01/24 06:47:01;;;;;;;5.43;3.45;;;;;;;11.94;54.15;97870.78;6155237;23;20037;-26
2024/01/24 06:49:27;;;;;;;8.15;4.25;;;;;;;12.06;53.98;97881.19;6154912;23;20009;-26
2024/01/24 06:51:52;;;;;;;12.00;4.70;;;;;;;12.03;53.66;97888.19;6155153;23;20012;-26
2024/01/24 06:54:17;;;;;;;10.48;4.95;;;;;;;12.04;53.94;97897.91;6154688;23;20012;-26
2024/01/24 06:56:44;;;;;;;13.15;5.40;;;;;;;12.27;53.21;97897.31;6155337;23;20005;-26
2024/01/24 06:59:11;;;;;;;12.32;4.47;;;;;;;12.14;53.67;97901.69;6154985;23;20297;-26
2024/01/24 07:01:36;;;;;;;8.15;3.28;;;;;;;12.14;53.07;97886.16;6154878;23;20005;-26
2024/01/24 07:04:02;;;;;;;7.78;3.20;;;;;;;12.06;53.13;97887.41;6154917;23;20324;-27
2024/01/24 07:06:28;;;;;;;5.43;2.78;;;;;;;12.18;52.95;97900.50;6154998;23;20005;-26
2024/01/24 07:08:53;;;;;;;4.60;2.70;;;;;;;12.18;52.73;97897.03;6154777;23;20005;-26
2024/01/24 07:11:19;;;;;;;4.82;2.67;;;;;;;12.18;52.65;97910.63;6154869;23;20131;-26
2024/01/24 07:13:44;;;;;;;6.82;3.33;;;;;;;11.85;53.49;97910.09;6154721;23;20002;-27
2024/01/24 07:16:10;;;;;;;4.53;3.30;;;;;;;12.16;52.88;97908.28;6155003;23;20009;-26
2024/01/24 07:18:36;;;;;;;5.28;3.30;;;;;;;12.16;52.61;97907.53;6154948;23;20028;-26
2024/01/24 07:21:03;;;;;;;4.85;2.60;;;;;;;12.03;52.51;97901.00;6154491;23;20010;-26
2024/01/24 07:23:28;;;;;;;5.10;2.60;;;;;;;12.18;52.79;97894.28;6154966;23;20016;-26
2024/01/24 07:25:54;;;;;;;4.57;2.60;;;;;;;12.25;51.87;97899.66;6154616;23;20005;-26
2024/01/24 07:28:19;;;;;;;4.40;2.53;;;;;;;12.15;52.47;97901.31;6155097;23;20012;-26
2024/01/24 07:30:45;;;;;;;5.38;2.90;;;;;;;12.11;52.34;97897.88;6128888;23;20013;-26
2024/01/24 07:33:10;;;;;;;7.30;2.92;;;;;;;12.19;52.16;97893.13;6155017;23;20133;-26
2024/01/24 07:35:36;;;;;;;6.43;2.92;;;;;;;12.26;51.96;97893.06;6155101;23;20010;-26
2024/01/24 07:38:03;;;;;;;6.90;2.97;;;;;;;12.03;52.48;97881.97;6155561;23;19997;-26
2024/01/24 07:40:28;;;;;;;10.48;3.05;;;;;;;12.14;52.40;97878.00;6157032;23;20005;-26
2024/01/24 07:42:54;;;;;;;8.95;3.05;;;;;;;12.18;52.60;97888.84;6156809;23;20017;-26
2024/01/24 07:45:19;;;;;;;14.40;3.38;;;;;;;12.26;52.01;97884.91;6156779;23;20041;-26
2024/01/24 07:47:47;;;;;;;11.38;3.15;;;;;;;12.32;52.00;97886.03;6156952;23;20438;-26
2024/01/24 07:50:13;;;;;;;8.95;4.30;;;;;;;12.08;52.42;97887.78;6156465;23;20421;-26
2024/01/24 07:52:38;;;;;;;11.73;6.00;;;;;;;12.23;52.47;97891.94;6156812;23;20076;-26
2024/01/24 07:55:05;;;;;;;17.38;8.70;;;;;;;12.14;52.46;97896.25;6156759;23;20005;-27
2024/01/24 07:57:30;;;;;;;15.82;8.30;;;;;;;12.09;52.94;97913.03;6156260;23;20080;-26
2024/01/24 07:59:56;;;;;;;14.32;6.78;;;;;;;12.15;52.49;97920.34;6156771;23;20077;-26
2024/01/24 08:02:21;;;;;;;9.55;5.20;;;;;;;11.97;53.15;97913.50;6156546;23;20367;-26
2024/01/24 08:04:47;;;;;;;7.10;4.10;;;;;;;12.15;51.98;97908.69;6156494;23;20356;-26
2024/01/24 08:07:13;;;;;;;7.18;3.50;;;;;;;12.19;52.66;97912.94;6157100;23;20323;-26
2024/01/24 08:09:38;;;;;;;6.60;3.55;;;;;;;12.52;51.66;97918.88;6156445;23;20072;-26
2024/01/24 08:12:04;;;;;;;8.07;3.88;;;;;;;12.42;52.41;97915.06;6156821;23;20013;-26
2024/01/24 08:14:29;;;;;;;8.43;3.58;;;;;;;12.22;52.67;97911.38;6156568;23;20061;-26
2024/01/24 08:17:02;;;;;;;6.10;3.22;;;;;;;12.52;52.38;97911.47;6156090;23;20435;-26
2024/01/24 08:19:28;;;;;;;6.03;3.33;;;;;;;12.52;52.25;97919.66;6156538;23;20013;-26
2024/01/24 08:21:54;;;;;;;8.07;3.42;;;;;;;12.62;52.04;97926.16;6156417;23;20152;-26
2024/01/24 08:24:19;;;;;;;6.30;3.47;;;;;;;12.43;52.56;97924.78;6130286;23;20004;-26
2024/01/24 08:26:45;;;;;;;6.78;3.70;;;;;;;12.26;53.29;97936.56;6156580;23;20006;-26
2024/01/24 08:29:11;;;;;;;8.18;4.50;;;;;;;12.33;53.33;97938.47;6155932;23;20005;-26
2024/01/24 08:31:36;;;;;;;9.38;6.03;;;;;;;12.30;53.20;97926.44;6156521;23;20009;-26
2024/01/24 08:34:02;;;;;;;15.35;9.68;;;;;;;12.24;53.83;97922.59;6155969;23;20006;-26
2024/01/24 08:36:27;;;;;;;23.30;12.48;;;;;;;12.33;53.66;97916.72;6156513;23;20005;-27
2024/01/24 08:38:53;;;;;;;17.13;8.55;;;;;;;12.32;53.61;97929.56;6156334;23;20002;-26
2024/01/24 08:41:18;;;;;;;14.98;7.45;;;;;;;12.47;53.21;97933.69;6155977;23;20018;-26
2024/01/24 08:43:44;;;;;;;15.05;7.18;;;;;;;12.52;53.10;97938.69;6129971;23;20005;-26
2024/01/24 08:46:09;;;;;;;11.15;6.07;;;;;;;12.42;53.67;97931.41;6156014;23;20084;-26
2024/01/24 08:48:35;;;;;;;10.55;5.68;;;;;;;12.46;53.80;97929.44;6156616;23;20055;-26
2024/01/24 08:51:00;;;;;;;8.32;5.00;;;;;;;12.51;53.49;97928.97;6156206;23;20036;-26
2024/01/24 08:53:26;;;;;;;9.52;4.43;;;;;;;12.38;53.93;97919.75;6156035;23;20013;-26
2024/01/24 08:55:51;;;;;;;7.45;4.13;;;;;;;12.47;53.99;97914.66;6156045;23;20001;-26
2024/01/24 08:58:17;;;;;;;7.57;3.70;;;;;;;12.42;54.74;97909.63;6156197;23;20008;-26
2024/01/24 09:00:42;;;;;;;9.85;3.22;;;;;;;12.59;54.53;97913.38;6156068;23;20009;-26
2024/01/24 09:03:07;;;;;;;6.32;3.35;;;;;;;12.64;54.15;97920.31;6156018;23;20010;-26
2024/01/24 09:05:33;;;;;;;6.88;3.13;;;;;;;12.74;54.00;97935.78;6155722;23;20008;-26
2024/01/24 09:07:59;;;;;;;10.85;3.42;;;;;;;12.72;54.34;97938.16;6156288;23;20002;-26
2024/01/24 09:10:25;;;;;;;6.70;3.10;;;;;;;12.81;54.11;97949.31;6156331;23;20001;-26
2024/01/24 09:12:50;;;;;;;6.45;2.70;;;;;;;12.80;53.66;97942.34;6155687;23;20005;-26
2024/01/24 09:15:16;;;;;;;6.38;3.40;;;;;;;13.01;53.54;97955.72;6156033;23;20010;-26
2024/01/24 09:17:41;;;;;;;5.43;2.92;;;;;;;13.18;52.88;97949.34;6155897;23;20008;-26
2024/01/24 09:20:07;;;;;;;5.75;2.90;;;;;;;13.51;52.47;97955.19;6156287;23;20475;-26
2024/01/24 09:22:33;;;;;;;4.93;2.53;;;;;;;13.84;51.35;97951.66;6156023;23;20095;-26
2024/01/24 09:24:58;;;;;;;5.30;3.20;;;;;;;13.92;51.32;97942.19;6155855;23;20076;-27
2024/01/24 09:27:24;;;;;;;5.65;2.70;;;;;;;13.78;51.75;97936.94;6155974;23;20405;-27
2024/01/24 09:29:49;;;;;;;4.40;2.40;;;;;;;14.21;50.87;97937.09;6156093;23;20015;-27
2024/01/24 09:32:14;;;;;;;3.90;2.30;;;;;;;14.64;49.74;97950.06;6155739;23;20005;-27
2024/01/24 09:34:40;;;;;;;6.43;2.65;;;;;;;14.82;49.57;97945.06;6155636;23;20332;-27
2024/01/24 09:37:06;;;;;;;7.20;2.85;;;;;;;14.77;50.07;97944.78;6155348;23;20080;-27
2024/01/24 09:39:32;;;;;;;3.75;2.55;;;;;;;14.92;50.05;97946.06;6155728;23;20485;-27
2024/01/24 09:41:57;;;;;;;7.95;3.38;;;;;;;15.27;48.86;97952.81;6155628;23;20021;-27
2024/01/24 09:44:25;;;;;;;6.57;2.90;;;;;;;15.24;48.61;97953.66;6155398;23;20005;-28
2024/01/24 09:46:53;;;;;;;5.90;2.45;;;;;;;15.40;48.32;97951.78;6155763;23;20009;-27
2024/01/24 09:49:19;;;;;;;6.55;2.40;;;;;;;15.67;47.82;97953.59;6129158;23;20025;-28
2024/01/24 09:51:46;;;;;;;7.72;2.67;;;;;;;15.91;47.23;97952.28;6155898;23;20316;-28
2024/01/24 09:54:12;;;;;;;6.55;2.70;;;;;;;16.21;46.28;97944.97;6155396;23;20005;-28
2024/01/24 09:56:38;;;;;;;7.18;3.22;;;;;;;16.06;46.49;97950.03;6155326;23;20032;-28
2024/01/24 09:59:08;;;;;;;7.55;3.10;;;;;;;16.16;46.24;97951.72;6155716;23;20008;-28
2024/01/24 10:01:35;;;;;;;5.82;2.40;;;;;;;16.12;45.94;97949.06;6155030;23;20383;-28
2024/01/24 10:04:01;;;;;;;5.97;2.30;;;;;;;15.95;46.72;97939.28;6155640;23;20056;-28
2024/01/24 10:06:28;;;;;;;7.15;2.17;;;;;;;15.62;47.25;97930.25;6155759;23;20001;-27
2024/01/24 10:08:57;;;;;;;7.63;2.33;;;;;;;15.39;47.83;97947.50;6155315;23;20009;-27
2024/01/24 10:11:26;;;;;;;6.78;2.20;;;;;;;15.36;48.15;97953.78;6155504;23;20041;-27
2024/01/24 10:14:00;;;;;;;4.57;2.53;;;;;;;15.14;48.41;97947.19;6128879;23;20009;-27
2024/01/24 10:16:26;;;;;;;5.32;2.00;;;;;;;15.00;48.87;97950.97;6155211;23;20069;-27
2024/01/24 10:18:55;;;;;;;3.70;1.58;;;;;;;14.85;49.37;97952.41;6155006;23;20428;-27
2024/01/24 10:21:21;;;;;;;4.47;1.80;;;;;;;14.56;49.71;97952.16;6155301;23;20352;-27
2024/01/24 10:23:46;;;;;;;3.47;1.88;;;;;;;14.36;50.03;97945.81;6154900;23;20032;-28
2024/01/24 10:26:12;;;;;;;6.85;2.22;;;;;;;14.45;50.33;97945.31;6155253;23;20017;-27
2024/01/24 10:28:37;;;;;;;5.10;2.08;;;;;;;14.11;51.26;97953.59;6155247;23;20001;-28
2024/01/24 10:31:03;;;;;;;5.72;1.98;;;;;;;14.17;51.10;97941.81;6154758;23;20001;-27
2024/01/24 10:33:29;;;;;;;4.15;1.77;;;;;;;14.15;51.26;97932.50;6155232;23;20006;-27
2024/01/24 10:35:56;;;;;;;3.40;1.50;;;;;;;13.88;52.09;97919.63;6155171;23;20331;-27
2024/01/24 10:38:22;;;;;;;4.25;1.90;;;;;;;14.01;51.74;97922.56;6154991;23;20332;-27
2024/01/24 10:40:53;;;;;;;4.75;1.80;;;;;;;13.89;51.74;97915.72;6155043;23;20009;-26
2024/01/24 10:43:20;;;;;;;3.00;1.50;;;;;;;13.77;52.45;97923.69;6155184;23;20005;-26
2024/01/24 10:45:47;;;;;;;5.18;2.17;;;;;;;13.85;52.46;97923.19;6155007;23;20008;-27
2024/01/24 10:48:12;;;;;;;4.70;2.15;;;;;;;13.86;52.08;97916.53;6155139;23;20005;-26
2024/01/24 10:50:44;;;;;;;4.18;1.83;;;;;;;13.86;52.21;97922.00;6128960;23;20080;-27
2024/01/24 10:53:12;;;;;;;4.32;2.00;;;;;;;13.60;53.45;97925.47;6155095;23;20064;-26
2024/01/24 10:55:37;;;;;;;4.30;1.80;;;;;;;13.66;53.08;97930.06;6154695;23;20060;-27
2024/01/24 10:58:03;;;;;;;4.47;1.90;;;;;;;13.71;53.34;97920.69;6155131;23;20009;-27
2024/01/24 11:00:29;;;;;;;4.40;2.00;;;;;;;13.57;53.46;97931.78;6155072;23;20009;-27
2024/01/24 11:02:56;;;;;;;5.10;1.95;;;;;;;13.52;53.85;97919.34;6155255;23;20025;-27
2024/01/24 11:05:33;;;;;;;6.07;2.30;;;;;;;13.55;53.75;97907.63;6154902;23;20001;-26
2024/01/24 11:08:08;;;;;;;5.07;2.05;;;;;;;13.59;53.48;97905.66;6154889;23;20006;-26
2024/01/24 11:10:35;;;;;;;5.22;2.60;;;;;;;13.60;53.61;97896.25;6154887;23;20057;-26
2024/01/24 11:13:05;;;;;;;6.65;2.40;;;;;;;13.51;53.53;97897.97;6128165;23;20010;-27
2024/01/24 11:15:34;;;;;;;5.60;2.08;;;;;;;13.56;53.51;97897.50;6155048;23;20005;-27
2024/01/24 11:18:19;;;;;;;3.85;2.30;;;;;;;13.63;53.77;97894.69;6154834;23;20380;-27
2024/01/24 11:20:47;;;;;;;6.78;2.67;;;;;;;13.62;53.47;97891.19;6154684;23;20008;-27
2024/01/24 11:23:32;;;;;;;7.75;2.13;;;;;;;13.57;54.09;97877.25;6154894;23;20029;-26
2024/01/24 11:25:57;;;;;;;6.97;3.05;;;;;;;13.65;53.55;97873.22;6154769;23;20002;-26